Time;durP1;ratioP1;P1;durP2;ratioP2;P2;SDS_P1;SDS_P2;PMS_P1;PMS_P2;Temp;Humidity;BMP_temperature;BMP_pressure;BME280_temperature;BME280_humidity;BME280_pressure;Samples;Min_cycle;Max_cycle;Signal;HPM_P1;HPM_P2
2021/05/26 08:30:22;;;;;;;0.30;0.30;;;13.30;82.10;;;;;;5060015;27;20438;-91
2021/05/26 08:32:48;;;;;;;0.30;0.30;;;13.70;81.20;;;;;;5052856;28;20033;-91
2021/05/26 08:35:14;;;;;;;0.30;0.30;;;13.80;80.50;;;;;;5049395;28;20410;-91
2021/05/26 08:37:40;;;;;;;0.20;0.20;;;14.30;79.90;;;;;;5047226;28;20026;-89
2021/05/26 08:40:07;;;;;;;0.40;0.30;;;14.70;78.60;;;;;;5052498;28;20029;-89
2021/05/26 08:42:32;;;;;;;0.30;0.20;;;14.80;76.80;;;;;;5052551;28;20029;-90
2021/05/26 08:44:58;;;;;;;0.35;0.30;;;15.10;77.20;;;;;;5052198;28;20031;-89
2021/05/26 08:47:26;;;;;;;0.60;0.50;;;15.00;76.30;;;;;;5046288;28;20068;-90
2021/05/26 08:49:52;;;;;;;0.25;0.25;;;15.00;75.90;;;;;;5048068;28;20033;-89
2021/05/26 08:52:19;;;;;;;0.30;0.30;;;15.20;75.80;;;;;;5051121;28;20613;-91
2021/05/26 08:54:49;;;;;;;0.40;0.30;;;15.20;74.90;;;;;;5051661;28;20029;-92
2021/05/26 08:57:16;;;;;;;0.30;0.20;;;15.10;75.80;;;;;;5051387;28;20033;-91
2021/05/26 08:59:42;;;;;;;0.47;0.20;;;15.20;75.70;;;;;;5048743;28;20032;-90
2021/05/26 09:02:10;;;;;;;0.20;0.20;;;15.50;75.20;;;;;;5047917;28;20472;-89
2021/05/26 09:04:36;;;;;;;0.43;0.30;;;15.90;74.40;;;;;;5052298;28;20422;-89
2021/05/26 09:07:08;;;;;;;0.20;0.20;;;16.10;74.10;;;;;;5053118;28;20021;-90
2021/05/26 09:09:58;;;;;;;0.20;0.20;;;16.40;72.10;;;;;;5050955;28;20122;-91
2021/05/26 09:12:34;;;;;;;;;;;16.30;69.50;;;;;;5046700;28;20030;-92
2021/05/26 09:15:04;;;;;;;0.20;0.20;;;16.60;70.50;;;;;;5050384;28;20367;-91
2021/05/26 09:17:31;;;;;;;0.20;0.20;;;16.90;69.80;;;;;;5051796;28;20013;-90
2021/05/26 09:20:26;;;;;;;0.20;0.20;;;17.00;70.20;;;;;;5051330;28;20479;-91
2021/05/26 09:22:58;;;;;;;0.20;0.20;;;17.00;69.30;;;;;;5053053;28;20108;-91
2021/05/26 09:25:24;;;;;;;0.20;0.20;;;16.50;69.20;;;;;;5043774;28;20057;-90
2021/05/26 09:27:50;;;;;;;0.20;0.20;;;16.70;70.60;;;;;;5074927;28;20022;-91
2021/05/26 09:30:30;;;;;;;0.20;0.20;;;16.70;69.80;;;;;;5050733;28;20099;-88
2021/05/26 09:32:55;;;;;;;0.20;0.20;;;16.80;68.50;;;;;;5042828;28;20017;-92
2021/05/26 09:35:21;;;;;;;0.20;0.20;;;16.80;69.90;;;;;;5042986;28;20465;-90
2021/05/26 09:37:56;;;;;;;0.82;0.15;;;17.00;69.80;;;;;;5051856;28;20499;-90
2021/05/26 09:40:21;;;;;;;0.20;0.20;;;16.90;69.90;;;;;;5045210;28;20032;-89
2021/05/26 09:42:48;;;;;;;0.20;0.20;;;17.10;69.50;;;;;;5037127;28;20025;-90
2021/05/26 09:45:20;;;;;;;0.17;0.17;;;17.10;68.60;;;;;;5038223;28;20022;-88
2021/05/26 09:47:53;;;;;;;0.20;0.20;;;17.10;69.80;;;;;;5034118;28;20026;-91
2021/05/26 09:50:35;;;;;;;0.20;0.20;;;17.30;69.40;;;;;;5051284;28;20026;-89
2021/05/26 09:53:01;;;;;;;0.30;0.20;;;17.10;68.80;;;;;;5069096;28;20036;-90
2021/05/26 09:55:37;;;;;;;0.20;0.20;;;17.10;69.60;;;;;;5026304;28;20029;-90
2021/05/26 09:58:05;;;;;;;0.20;0.20;;;17.00;68.20;;;;;;5038365;28;20033;-88
2021/05/26 10:00:32;;;;;;;0.20;0.20;;;16.50;69.00;;;;;;5038270;28;20545;-88
2021/05/26 10:02:58;;;;;;;0.20;0.20;;;16.60;69.70;;;;;;5030679;28;20519;-88
2021/05/26 10:05:25;;;;;;;0.20;0.20;;;16.90;68.70;;;;;;5033018;28;20026;-82
2021/05/26 10:07:59;;;;;;;0.20;0.10;;;17.30;68.20;;;;;;5031775;28;20530;-83
2021/05/26 10:10:29;;;;;;;0.17;0.17;;;17.70;67.50;;;;;;5031532;28;20054;-79
2021/05/26 10:12:58;;;;;;;0.28;0.20;;;17.60;65.50;;;;;;5035110;28;20121;-85
2021/05/26 10:15:25;;;;;;;0.20;0.20;;;17.60;67.30;;;;;;5045174;28;20047;-86
2021/05/26 10:17:54;;;;;;;0.25;0.17;;;17.80;68.20;;;;;;5041574;28;20025;-86
2021/05/26 10:20:33;;;;;;;0.25;0.20;;;18.00;66.80;;;;;;5048735;28;20028;-88
2021/05/26 10:23:01;;;;;;;0.20;0.20;;;17.80;67.30;;;;;;5052496;28;20021;-86
2021/05/26 10:25:27;;;;;;;0.10;0.10;;;17.40;68.30;;;;;;5037038;28;20503;-91
2021/05/26 10:27:55;;;;;;;0.13;0.13;;;17.30;68.50;;;;;;5034445;28;20025;-84
2021/05/26 10:30:26;;;;;;;0.10;0.10;;;17.60;67.30;;;;;;5044507;28;20765;-85
2021/05/26 10:32:59;;;;;;;0.20;0.20;;;17.50;67.00;;;;;;5040490;28;20056;-85
2021/05/26 10:35:30;;;;;;;0.20;0.20;;;17.20;68.00;;;;;;5045064;28;20033;-87
2021/05/26 10:38:06;;;;;;;0.15;0.10;;;17.00;69.20;;;;;;5038905;28;20029;-91
2021/05/26 10:40:36;;;;;;;0.20;0.20;;;17.00;68.70;;;;;;5053568;28;20040;-90
2021/05/26 10:43:18;;;;;;;0.10;0.10;;;17.30;68.70;;;;;;5049865;28;20553;-91
2021/05/26 10:45:45;;;;;;;0.10;0.10;;;17.50;67.80;;;;;;5039685;28;20037;-87
2021/05/26 10:48:11;;;;;;;0.10;0.10;;;17.60;67.20;;;;;;5040283;28;20052;-86
2021/05/26 10:50:57;;;;;;;0.30;0.30;;;17.30;68.60;;;;;;5045493;28;20125;-86
2021/05/26 10:53:23;;;;;;;0.10;0.10;;;17.20;68.30;;;;;;5044426;28;20040;-85
2021/05/26 10:55:53;;;;;;;0.25;0.20;;;17.00;68.20;;;;;;5055740;28;20096;-85
2021/05/26 10:58:23;;;;;;;0.10;0.10;;;17.10;68.60;;;;;;5056275;28;20055;-90
2021/05/26 11:01:09;;;;;;;0.20;0.20;;;17.30;68.40;;;;;;5032430;28;20075;-83
2021/05/26 11:03:39;;;;;;;0.17;0.17;;;17.20;69.00;;;;;;5033248;28;20264;-87
2021/05/26 11:06:09;;;;;;;0.28;0.20;;;17.20;69.20;;;;;;5030156;28;20045;-83
2021/05/26 11:08:48;;;;;;;0.20;0.20;;;17.20;67.80;;;;;;5025606;28;20079;-92
2021/05/26 11:14:11;;;;;;;0.20;0.20;;;17.00;69.30;;;;;;5021406;28;20029;-86
2021/05/26 11:16:46;;;;;;;0.15;0.13;;;16.80;68.30;;;;;;5025693;28;20111;-86
2021/05/26 11:19:22;;;;;;;0.20;0.20;;;16.80;69.60;;;;;;5015214;28;20144;-86
2021/05/26 11:22:05;;;;;;;0.10;0.10;;;17.10;69.10;;;;;;5039582;28;20088;-86
2021/05/26 11:24:36;;;;;;;0.20;0.20;;;17.10;68.50;;;;;;5039496;28;20104;-87
2021/05/26 11:27:12;;;;;;;0.13;0.13;;;16.90;69.20;;;;;;5006567;28;21285;-87
2021/05/26 11:29:38;;;;;;;0.20;0.20;;;17.00;70.60;;;;;;5009173;28;20191;-87
2021/05/26 11:32:14;;;;;;;0.20;0.20;;;16.80;71.00;;;;;;5011546;28;20099;-86
2021/05/26 11:34:47;;;;;;;0.20;0.20;;;16.40;71.00;;;;;;5001498;28;20021;-88
2021/05/26 11:37:26;;;;;;;0.10;0.10;;;16.70;71.00;;;;;;5006412;28;20042;-87
2021/05/26 11:39:52;;;;;;;0.20;0.20;;;16.80;70.90;;;;;;5008240;28;20022;-84
2021/05/26 11:42:21;;;;;;;0.10;0.10;;;16.80;71.40;;;;;;5012777;28;20029;-84
2021/05/26 11:45:00;;;;;;;0.57;0.20;;;16.50;73.20;;;;;;5012296;28;20018;-85
2021/05/26 11:47:36;;;;;;;0.20;0.20;;;16.60;73.90;;;;;;5011359;28;20025;-85
2021/05/26 11:50:17;;;;;;;0.20;0.20;;;16.90;73.10;;;;;;5013381;28;20037;-87
2021/05/26 11:52:46;;;;;;;0.20;0.20;;;17.40;70.80;;;;;;5007660;28;20083;-84
2021/05/26 11:55:17;;;;;;;0.17;0.17;;;17.70;69.40;;;;;;5012323;28;20144;-86
2021/05/26 11:57:44;;;;;;;0.17;0.17;;;17.70;69.40;;;;;;5013712;28;20523;-84
2021/05/26 12:00:25;;;;;;;0.20;0.20;;;17.50;70.00;;;;;;5013801;28;20029;-85
2021/05/26 12:02:56;;;;;;;0.20;0.20;;;17.50;69.70;;;;;;5010913;28;20029;-86
2021/05/26 12:05:42;;;;;;;0.20;0.20;;;16.90;71.60;;;;;;5012945;28;20085;-86
2021/05/26 12:08:14;;;;;;;0.20;0.20;;;16.50;72.80;;;;;;5007272;28;20511;-84
2021/05/26 12:10:40;;;;;;;0.10;0.10;;;16.40;73.60;;;;;;5013896;28;20028;-85
2021/05/26 12:13:06;;;;;;;0.10;0.10;;;16.80;72.70;;;;;;5013839;28;20108;-86
2021/05/26 12:15:33;;;;;;;0.10;0.10;;;16.90;70.80;;;;;;5002043;28;20093;-85
2021/05/26 12:17:59;;;;;;;0.20;0.20;;;17.00;71.20;;;;;;5011584;28;20041;-85
2021/05/26 12:20:25;;;;;;;0.10;0.10;;;17.20;71.60;;;;;;5007971;28;20049;-87
2021/05/26 12:22:52;;;;;;;0.10;0.10;;;17.20;72.30;;;;;;5012613;28;20025;-86
2021/05/26 12:25:18;;;;;;;0.20;0.20;;;17.60;68.90;;;;;;5008185;28;20026;-85
2021/05/26 12:27:47;;;;;;;0.15;0.15;;;17.70;70.00;;;;;;5033133;28;20034;-85
2021/05/26 12:30:17;;;;;;;0.20;0.10;;;18.00;68.20;;;;;;5012254;28;20056;-86
2021/05/26 12:32:44;;;;;;;0.10;0.10;;;17.90;69.20;;;;;;5005699;28;20046;-85
2021/05/26 12:35:17;;;;;;;0.10;0.10;;;18.00;69.50;;;;;;4993024;28;20034;-87
2021/05/26 12:37:46;;;;;;;0.10;0.10;;;17.90;69.20;;;;;;5001421;28;20035;-86
2021/05/26 12:40:27;;;;;;;0.20;0.20;;;18.10;68.90;;;;;;5013779;28;20034;-86
2021/05/26 12:42:54;;;;;;;0.20;0.10;;;18.30;68.00;;;;;;5012192;28;20097;-86
2021/05/26 12:45:25;;;;;;;0.10;0.10;;;18.00;68.80;;;;;;4995614;28;20113;-85
2021/05/26 12:47:53;;;;;;;0.20;0.20;;;18.00;70.00;;;;;;5045412;28;20091;-86
2021/05/26 12:50:23;;;;;;;0.17;0.17;;;18.10;69.20;;;;;;5007892;28;20030;-85
2021/05/26 12:52:55;;;;;;;0.30;0.20;;;18.10;68.50;;;;;;4992796;28;20533;-86
2021/05/26 12:55:24;;;;;;;0.20;0.20;;;18.50;67.60;;;;;;4994352;28;20042;-86
2021/05/26 12:57:59;;;;;;;0.10;0.10;;;18.60;68.10;;;;;;5002555;28;20044;-87
2021/05/26 13:00:25;;;;;;;0.20;0.20;;;18.30;69.70;;;;;;5012664;28;20030;-85
2021/05/26 13:03:10;;;;;;;0.10;0.10;;;18.30;68.00;;;;;;5012471;28;20484;-86
2021/05/26 13:05:40;;;;;;;0.30;0.20;;;18.10;69.90;;;;;;5003614;28;20035;-86
2021/05/26 13:08:16;;;;;;;0.20;0.20;;;18.00;69.20;;;;;;4993605;28;20130;-86
2021/05/26 13:10:45;;;;;;;0.20;0.20;;;17.80;70.00;;;;;;4993951;28;20037;-86
2021/05/26 13:13:21;;;;;;;0.40;0.20;;;17.60;70.30;;;;;;4994522;28;20068;-87
2021/05/26 13:15:52;;;;;;;0.40;0.20;;;17.60;70.20;;;;;;4996005;28;20050;-87
2021/05/26 13:18:22;;;;;;;0.20;0.20;;;17.60;70.90;;;;;;5028862;28;20109;-84
2021/05/26 13:20:49;;;;;;;0.28;0.20;;;17.70;70.10;;;;;;4997896;28;20030;-85
2021/05/26 13:23:15;;;;;;;0.20;0.20;;;17.60;70.40;;;;;;5031529;28;20113;-86
2021/05/26 13:25:43;;;;;;;0.20;0.20;;;17.50;71.70;;;;;;5014918;28;20053;-86
2021/05/26 13:28:12;;;;;;;0.20;0.20;;;17.40;71.50;;;;;;5008813;28;20033;-86
2021/05/26 13:30:48;;;;;;;0.45;0.20;;;17.30;70.80;;;;;;5032265;28;20072;-86
2021/05/26 13:33:15;;;;;;;0.20;0.20;;;17.20;70.70;;;;;;5015793;28;20136;-86
2021/05/26 13:35:41;;;;;;;0.50;0.20;;;17.40;71.80;;;;;;5007182;28;20059;-87
2021/05/26 13:38:08;;;;;;;0.20;0.20;;;17.30;71.70;;;;;;4995365;28;20034;-86
2021/05/26 13:40:36;;;;;;;0.20;0.20;;;17.40;69.90;;;;;;4997256;28;20015;-86
2021/05/26 13:43:04;;;;;;;0.50;0.20;;;17.50;71.00;;;;;;5000718;28;20041;-85
2021/05/26 13:45:30;;;;;;;0.30;0.20;;;17.70;71.20;;;;;;5003411;28;20030;-86
2021/05/26 13:47:56;;;;;;;0.20;0.20;;;17.70;69.70;;;;;;5013693;28;20026;-85
2021/05/26 13:50:24;;;;;;;0.20;0.20;;;17.60;71.60;;;;;;5016076;28;20045;-85
2021/05/26 13:52:52;;;;;;;0.20;0.20;;;17.70;70.90;;;;;;5048272;28;20037;-85
2021/05/26 13:55:20;;;;;;;0.20;0.20;;;17.70;70.00;;;;;;5014065;28;20030;-86
2021/05/26 13:57:49;;;;;;;0.32;0.20;;;17.30;71.00;;;;;;5015268;28;20030;-82
2021/05/26 14:00:15;;;;;;;0.20;0.10;;;17.00;72.90;;;;;;5011465;28;20032;-85
2021/05/26 14:02:42;;;;;;;0.20;0.20;;;16.80;72.30;;;;;;5028204;28;20117;-85
2021/05/26 14:05:13;;;;;;;0.15;0.15;;;16.60;74.40;;;;;;5008963;28;20018;-84
2021/05/26 14:07:38;;;;;;;0.10;0.10;;;16.30;74.90;;;;;;5009765;28;20507;-85
2021/05/26 14:10:06;;;;;;;0.10;0.10;;;16.30;75.30;;;;;;5016308;28;20053;-85
2021/05/26 14:12:31;;;;;;;0.65;0.20;;;16.30;75.20;;;;;;5006010;28;20070;-84
2021/05/26 14:14:57;;;;;;;0.10;0.10;;;16.30;75.30;;;;;;5013232;28;20033;-84
2021/05/26 14:17:23;;;;;;;0.22;0.20;;;16.30;75.40;;;;;;5010677;28;20037;-84
2021/05/26 14:19:49;;;;;;;0.20;0.20;;;16.20;75.80;;;;;;5013363;28;20492;-84
2021/05/26 14:22:17;;;;;;;0.50;0.20;;;16.40;75.20;;;;;;5015745;28;20041;-84
2021/05/26 14:24:42;;;;;;;0.30;0.20;;;16.50;74.90;;;;;;5014259;28;20026;-84
2021/05/26 14:27:10;;;;;;;0.57;0.40;;;16.40;75.10;;;;;;5014418;28;20480;-84
2021/05/26 14:29:36;;;;;;;0.20;0.20;;;16.40;74.90;;;;;;5013093;28;20046;-84
2021/05/26 14:32:02;;;;;;;0.20;0.10;;;16.40;74.30;;;;;;5014958;28;20033;-84
2021/05/26 14:34:28;;;;;;;0.20;0.20;;;16.30;75.00;;;;;;5004351;28;20354;-83
2021/05/26 14:36:54;;;;;;;0.20;0.20;;;16.20;75.90;;;;;;5013111;28;20034;-82
2021/05/26 14:39:19;;;;;;;0.20;0.20;;;16.30;75.10;;;;;;5014643;28;20034;-85
2021/05/26 14:41:47;;;;;;;0.38;0.20;;;16.30;76.60;;;;;;5013318;28;20495;-84
2021/05/26 14:44:14;;;;;;;0.28;0.20;;;16.40;75.30;;;;;;5013584;28;20026;-84
2021/05/26 14:46:40;;;;;;;0.10;0.10;;;16.50;75.70;;;;;;4999280;28;20537;-84
2021/05/26 14:49:05;;;;;;;0.28;0.20;;;16.60;74.90;;;;;;4994654;28;20035;-84
2021/05/26 14:51:32;;;;;;;0.28;0.28;;;16.60;74.90;;;;;;4994655;28;20034;-85
2021/05/26 14:53:59;;;;;;;0.20;0.20;;;16.50;75.10;;;;;;4993674;28;20062;-83
2021/05/26 14:56:26;;;;;;;0.77;0.20;;;16.40;75.30;;;;;;4995280;28;20081;-83
2021/05/26 14:58:52;;;;;;;0.47;0.30;;;16.60;75.00;;;;;;4995101;28;20022;-83
2021/05/26 15:01:19;;;;;;;0.20;0.20;;;16.50;75.10;;;;;;4995038;28;20489;-83
2021/05/26 15:03:45;;;;;;;0.40;0.20;;;16.30;75.10;;;;;;4994611;28;20504;-83
2021/05/26 15:06:10;;;;;;;0.20;0.20;;;16.40;75.50;;;;;;4994301;28;20121;-83
2021/05/26 15:08:36;;;;;;;0.10;0.10;;;16.40;75.40;;;;;;5001939;28;20057;-83
2021/05/26 15:11:03;;;;;;;0.20;0.20;;;16.50;74.90;;;;;;5014785;28;20038;-83
2021/05/26 15:13:31;;;;;;;0.40;0.20;;;16.60;75.20;;;;;;5009881;28;20121;-83
2021/05/26 15:15:57;;;;;;;0.28;0.20;;;16.60;75.30;;;;;;4995016;28;20105;-83
2021/05/26 15:18:23;;;;;;;0.20;0.20;;;16.50;74.70;;;;;;4994748;28;20097;-83
2021/05/26 15:20:48;;;;;;;0.10;0.10;;;16.30;75.50;;;;;;4995203;28;20022;-84
2021/05/26 15:23:16;;;;;;;0.20;0.20;;;16.40;75.70;;;;;;5010243;28;20037;-83
2021/05/26 15:25:42;;;;;;;0.20;0.20;;;16.40;75.50;;;;;;5014439;28;20091;-83
2021/05/26 15:28:08;;;;;;;0.25;0.20;;;16.30;76.30;;;;;;5011234;28;20026;-83
2021/05/26 15:30:34;;;;;;;0.20;0.20;;;16.20;75.70;;;;;;5013177;28;20488;-85
2021/05/26 15:33:00;;;;;;;0.20;0.20;;;16.00;75.50;;;;;;5012636;28;20029;-85
2021/05/26 15:35:27;;;;;;;0.10;0.10;;;16.10;75.90;;;;;;5006455;28;20030;-83
2021/05/26 15:37:53;;;;;;;0.35;0.20;;;16.00;75.90;;;;;;5025442;28;20129;-84
2021/05/26 15:40:20;;;;;;;0.20;0.20;;;16.10;76.60;;;;;;5025838;28;20030;-84
2021/05/26 15:42:45;;;;;;;0.20;0.20;;;16.10;76.30;;;;;;5002625;28;20572;-85
2021/05/26 15:45:12;;;;;;;0.35;0.20;;;16.20;76.10;;;;;;5010059;28;20188;-84
2021/05/26 15:47:39;;;;;;;0.40;0.30;;;16.30;75.70;;;;;;5001732;28;20029;-88
2021/05/26 15:50:07;;;;;;;0.40;0.20;;;16.70;74.80;;;;;;5005374;28;20876;-86
2021/05/26 15:52:34;;;;;;;0.20;0.20;;;16.80;73.50;;;;;;5012826;28;20080;-86
2021/05/26 15:55:01;;;;;;;0.20;0.20;;;16.80;73.90;;;;;;5011747;28;20069;-87
2021/05/26 15:57:27;;;;;;;0.20;0.20;;;16.80;73.60;;;;;;5042553;28;20124;-88
2021/05/26 15:59:53;;;;;;;0.60;0.30;;;16.70;73.50;;;;;;5008059;28;20033;-88
2021/05/26 16:02:19;;;;;;;0.20;0.20;;;16.70;74.00;;;;;;5004605;28;20030;-88
2021/05/26 16:04:44;;;;;;;0.20;0.20;;;16.70;73.40;;;;;;5006009;28;20266;-88
2021/05/26 16:07:10;;;;;;;0.20;0.20;;;16.70;74.10;;;;;;5011056;28;20026;-88
2021/05/26 16:09:36;;;;;;;0.20;0.20;;;16.70;73.40;;;;;;5011862;28;20033;-87
2021/05/26 16:12:02;;;;;;;0.25;0.20;;;16.50;74.10;;;;;;5011919;28;20033;-87
2021/05/26 16:14:28;;;;;;;0.45;0.20;;;16.50;74.70;;;;;;4994126;28;20065;-86
2021/05/26 16:16:55;;;;;;;0.20;0.20;;;16.50;74.10;;;;;;4994627;28;20038;-84
2021/05/26 16:19:21;;;;;;;0.30;0.20;;;16.60;74.10;;;;;;4996369;28;20034;-84
2021/05/26 16:21:46;;;;;;;0.35;0.30;;;16.60;73.80;;;;;;5028047;28;20065;-86
2021/05/26 16:24:12;;;;;;;0.20;0.20;;;16.40;73.90;;;;;;5010190;28;20037;-87
2021/05/26 16:26:38;;;;;;;0.30;0.20;;;16.10;75.90;;;;;;5002768;28;20158;-86
2021/05/26 16:29:04;;;;;;;0.30;0.20;;;16.00;75.80;;;;;;5011060;28;20602;-86
2021/05/26 16:31:30;;;;;;;0.20;0.20;;;16.10;75.80;;;;;;5008701;28;20030;-86
2021/05/26 16:33:58;;;;;;;0.20;0.20;;;16.20;74.70;;;;;;4998487;28;20041;-85
2021/05/26 16:36:25;;;;;;;0.50;0.30;;;16.20;75.00;;;;;;5011757;28;20036;-84
2021/05/26 16:38:51;;;;;;;0.28;0.17;;;16.30;74.40;;;;;;4997356;28;20038;-85
2021/05/26 16:41:17;;;;;;;0.30;0.20;;;16.30;74.40;;;;;;5030686;28;20504;-87
2021/05/26 16:43:45;;;;;;;0.20;0.20;;;16.60;73.40;;;;;;5007249;28;20022;-89
2021/05/26 16:46:11;;;;;;;0.20;0.20;;;16.60;72.50;;;;;;5011622;28;20033;-85
2021/05/26 16:48:37;;;;;;;0.40;0.20;;;16.50;72.90;;;;;;4998025;28;20026;-86
2021/05/26 16:51:03;;;;;;;0.25;0.20;;;16.30;74.10;;;;;;5011897;28;20036;-83
2021/05/26 16:53:30;;;;;;;0.20;0.20;;;16.30;74.40;;;;;;5010901;28;20026;-87
2021/05/26 16:55:58;;;;;;;0.20;0.20;;;16.30;74.50;;;;;;5011262;28;20030;-89
2021/05/26 16:58:24;;;;;;;0.20;0.20;;;16.10;74.10;;;;;;5003607;28;20419;-92
2021/05/26 17:00:56;;;;;;;0.30;0.30;;;16.10;74.60;;;;;;5043749;28;20049;-86
2021/05/26 17:03:22;;;;;;;0.25;0.20;;;16.20;75.20;;;;;;5016161;28;20034;-87
2021/05/26 17:05:48;;;;;;;0.30;0.20;;;16.30;74.40;;;;;;5015102;28;20513;-80
2021/05/26 17:08:13;;;;;;;0.40;0.30;;;16.40;74.30;;;;;;5014094;28;20026;-84
2021/05/26 17:10:39;;;;;;;0.40;0.30;;;16.40;73.50;;;;;;5017906;28;20018;-82
2021/05/26 17:13:05;;;;;;;0.40;0.30;;;16.20;74.60;;;;;;5018165;28;20030;-82
2021/05/26 17:15:31;;;;;;;0.25;0.20;;;16.20;73.90;;;;;;5047957;28;20020;-86
2021/05/26 17:17:56;;;;;;;0.40;0.30;;;16.10;73.30;;;;;;5013697;28;20030;-86
2021/05/26 17:20:22;;;;;;;0.30;0.30;;;16.00;74.80;;;;;;5015281;28;20021;-86
2021/05/26 17:22:48;;;;;;;0.30;0.20;;;16.00;74.70;;;;;;5015743;28;20037;-86
2021/05/26 17:25:16;;;;;;;0.65;0.30;;;16.10;73.70;;;;;;5014185;28;20602;-87
2021/05/26 17:27:43;;;;;;;0.20;0.20;;;16.10;73.80;;;;;;5015198;28;20041;-85
2021/05/26 17:30:11;;;;;;;0.77;0.30;;;16.10;73.90;;;;;;5013917;28;20049;-87
2021/05/26 17:32:37;;;;;;;0.40;0.20;;;16.10;74.50;;;;;;5013559;28;20026;-86
2021/05/26 17:35:04;;;;;;;0.47;0.30;;;15.90;75.10;;;;;;5014399;28;20022;-86
2021/05/26 17:37:29;;;;;;;0.35;0.28;;;15.80;74.90;;;;;;5016238;28;20404;-87
2021/05/26 17:39:55;;;;;;;0.40;0.30;;;15.80;74.60;;;;;;5015691;28;20030;-85
2021/05/26 17:42:21;;;;;;;0.88;0.30;;;15.80;75.20;;;;;;5014652;28;20037;-85
2021/05/26 17:44:47;;;;;;;0.20;0.20;;;15.80;75.60;;;;;;5015865;28;20530;-85
2021/05/26 17:47:12;;;;;;;0.30;0.20;;;15.80;75.60;;;;;;5013242;28;20492;-81
2021/05/26 17:49:38;;;;;;;0.40;0.30;;;15.90;75.60;;;;;;5015511;28;20033;-86
2021/05/26 17:52:04;;;;;;;0.47;0.30;;;15.90;75.30;;;;;;5018761;28;20029;-92
2021/05/26 17:54:30;;;;;;;0.40;0.30;;;16.10;75.90;;;;;;5023100;28;20040;-87
2021/05/26 17:56:56;;;;;;;0.45;0.30;;;16.00;75.60;;;;;;5020241;28;20462;-87
2021/05/26 17:59:22;;;;;;;0.20;0.20;;;16.20;74.70;;;;;;5024574;28;20499;-90
2021/05/26 18:01:48;;;;;;;0.60;0.30;;;16.20;74.90;;;;;;5025220;28;20491;-91
2021/05/26 18:04:14;;;;;;;0.50;0.20;;;16.00;75.20;;;;;;5018329;28;20037;-89
2021/05/26 18:06:40;;;;;;;0.77;0.30;;;16.00;75.20;;;;;;5026326;28;20169;-90
2021/05/26 18:09:06;;;;;;;0.70;0.40;;;15.80;75.80;;;;;;5022731;28;20455;-87
2021/05/26 18:11:32;;;;;;;0.40;0.30;;;15.80;76.20;;;;;;5020171;28;20033;-89
2021/05/26 18:13:58;;;;;;;0.30;0.30;;;15.70;75.80;;;;;;5020972;28;20507;-85
2021/05/26 18:16:25;;;;;;;0.60;0.40;;;15.40;76.40;;;;;;5021541;28;20026;-88
2021/05/26 18:18:51;;;;;;;0.30;0.30;;;15.20;76.80;;;;;;5021541;28;20034;-91
2021/05/26 18:21:18;;;;;;;0.50;0.30;;;15.20;77.20;;;;;;5020231;28;20048;-87
2021/05/26 18:23:44;;;;;;;0.30;0.28;;;15.00;77.90;;;;;;5021713;28;20030;-92
2021/05/26 18:26:10;;;;;;;0.40;0.32;;;15.20;77.30;;;;;;5022847;28;20056;-84
2021/05/26 18:28:35;;;;;;;0.70;0.38;;;15.20;76.40;;;;;;5021262;28;20045;-89
2021/05/26 18:31:02;;;;;;;0.50;0.40;;;15.10;77.00;;;;;;5010589;28;20495;-90
2021/05/26 18:33:29;;;;;;;1.60;0.52;;;15.10;77.50;;;;;;5017749;28;20049;-89
2021/05/26 18:35:55;;;;;;;0.90;0.50;;;14.90;77.90;;;;;;5019198;28;20037;-88
2021/05/26 18:38:21;;;;;;;0.70;0.50;;;15.00;77.70;;;;;;5017147;28;20095;-91
2021/05/26 18:40:47;;;;;;;0.65;0.50;;;15.20;77.30;;;;;;5012244;28;20036;-90
2021/05/26 18:43:15;;;;;;;0.50;0.30;;;15.30;77.30;;;;;;5009677;28;20510;-90
2021/05/26 18:45:45;;;;;;;0.40;0.30;;;15.30;77.30;;;;;;5013164;28;20042;-90
2021/05/26 18:48:11;;;;;;;0.97;0.60;;;15.40;76.60;;;;;;5045171;28;20017;-92
2021/05/26 18:50:38;;;;;;;0.80;0.50;;;15.60;76.30;;;;;;5014528;28;20112;-86
2021/05/26 18:53:04;;;;;;;0.40;0.30;;;15.50;76.00;;;;;;5008002;28;20477;-85
2021/05/26 18:55:30;;;;;;;1.13;0.30;;;15.50;75.80;;;;;;5014032;28;20815;-85
2021/05/26 18:57:57;;;;;;;0.75;0.40;;;15.30;76.10;;;;;;5011049;28;20068;-87
2021/05/26 19:00:30;;;;;;;0.65;0.40;;;15.20;76.50;;;;;;5013641;28;20030;-90
2021/05/26 19:02:56;;;;;;;0.45;0.32;;;15.10;77.10;;;;;;5049622;28;20092;-91
2021/05/26 19:05:23;;;;;;;0.50;0.30;;;15.00;77.60;;;;;;5014635;28;20113;-92
2021/05/26 19:07:49;;;;;;;0.43;0.30;;;14.90;77.90;;;;;;5015461;28;20381;-88
2021/05/26 19:10:18;;;;;;;0.30;0.30;;;14.90;78.20;;;;;;5043758;28;20026;-88
2021/05/26 19:12:44;;;;;;;0.50;0.30;;;14.80;77.70;;;;;;5012707;28;20028;-87
2021/05/26 19:15:11;;;;;;;0.60;0.40;;;14.80;77.20;;;;;;5009576;28;20030;-87
2021/05/26 19:17:37;;;;;;;0.88;0.40;;;14.70;77.40;;;;;;5014628;28;20021;-87
2021/05/26 19:20:05;;;;;;;0.60;0.50;;;14.80;77.30;;;;;;5012606;28;20041;-89
2021/05/26 19:22:32;;;;;;;0.68;0.50;;;14.90;76.70;;;;;;5012595;28;20050;-87
2021/05/26 19:24:58;;;;;;;0.50;0.40;;;14.70;76.90;;;;;;5015686;28;20564;-86
2021/05/26 19:27:25;;;;;;;1.02;0.50;;;14.50;78.00;;;;;;5011361;28;20045;-87
2021/05/26 19:29:53;;;;;;;0.50;0.38;;;14.40;78.20;;;;;;5013974;28;20057;-85
2021/05/26 19:32:22;;;;;;;0.43;0.38;;;14.50;79.20;;;;;;5014028;28;20511;-87
2021/05/26 19:34:48;;;;;;;0.30;0.30;;;14.60;78.30;;;;;;5013925;28;20072;-88
2021/05/26 19:37:17;;;;;;;0.80;0.38;;;14.60;77.50;;;;;;5013202;28;20484;-88
2021/05/26 19:39:44;;;;;;;0.40;0.30;;;14.50;78.20;;;;;;5015275;28;20105;-87
2021/05/26 19:42:10;;;;;;;0.45;0.30;;;14.50;77.90;;;;;;5006224;28;20029;-87
2021/05/26 19:44:37;;;;;;;0.35;0.30;;;14.50;77.90;;;;;;5010412;28;20033;-86
2021/05/26 19:47:05;;;;;;;0.30;0.30;;;14.60;77.30;;;;;;5008492;28;20022;-88
2021/05/26 19:49:31;;;;;;;0.40;0.30;;;14.70;77.30;;;;;;5008679;28;20026;-86
2021/05/26 19:51:59;;;;;;;0.30;0.30;;;14.70;77.00;;;;;;5039672;28;20057;-89
2021/05/26 19:54:25;;;;;;;0.30;0.30;;;14.70;76.80;;;;;;5010687;28;20056;-86
2021/05/26 19:56:51;;;;;;;0.30;0.30;;;14.70;77.30;;;;;;5009460;28;20108;-87
2021/05/26 19:59:17;;;;;;;0.35;0.35;;;14.70;77.80;;;;;;5010114;28;20037;-87
2021/05/26 20:01:45;;;;;;;0.52;0.40;;;14.60;77.80;;;;;;5042224;28;20018;-89
2021/05/26 20:04:11;;;;;;;0.30;0.30;;;14.60;77.30;;;;;;5004976;28;20075;-87
2021/05/26 20:06:37;;;;;;;0.40;0.30;;;14.50;76.60;;;;;;5041653;28;20113;-88
2021/05/26 20:09:03;;;;;;;0.50;0.30;;;14.40;77.70;;;;;;5010827;28;20489;-88
2021/05/26 20:11:29;;;;;;;0.43;0.30;;;14.10;78.80;;;;;;5013619;28;20053;-88
2021/05/26 20:13:55;;;;;;;0.28;0.28;;;14.00;79.30;;;;;;5037563;28;20757;-89
2021/05/26 20:16:23;;;;;;;0.40;0.30;;;14.00;79.20;;;;;;5008570;28;20042;-89
2021/05/26 20:18:49;;;;;;;0.52;0.40;;;14.20;78.70;;;;;;5004646;28;20417;-87
2021/05/26 20:21:15;;;;;;;0.60;0.38;;;14.30;78.60;;;;;;5005083;28;20111;-90
2021/05/26 20:23:42;;;;;;;0.30;0.30;;;14.30;78.40;;;;;;5009643;28;20479;-88
2021/05/26 20:26:08;;;;;;;0.52;0.30;;;14.30;78.30;;;;;;4999608;28;20109;-87
2021/05/26 20:28:34;;;;;;;0.38;0.30;;;14.40;77.80;;;;;;5004675;28;20052;-87
2021/05/26 20:31:02;;;;;;;0.82;0.40;;;14.30;78.00;;;;;;5005085;28;20739;-87
2021/05/26 20:33:28;;;;;;;0.30;0.30;;;14.30;77.60;;;;;;5001860;28;20389;-87
2021/05/26 20:35:53;;;;;;;0.30;0.30;;;14.30;78.00;;;;;;4995074;28;20026;-81
2021/05/26 20:38:20;;;;;;;0.30;0.30;;;14.30;78.10;;;;;;4996157;28;20061;-81
2021/05/26 20:40:46;;;;;;;0.30;0.30;;;14.30;77.70;;;;;;4996689;28;20018;-81
2021/05/26 20:43:12;;;;;;;0.57;0.30;;;14.30;77.30;;;;;;5010326;28;20030;-83
2021/05/26 20:45:38;;;;;;;0.43;0.38;;;14.30;77.10;;;;;;4995295;28;20041;-82
2021/05/26 20:48:04;;;;;;;0.38;0.30;;;14.30;77.10;;;;;;4992929;28;20573;-82
2021/05/26 20:50:36;;;;;;;0.73;0.55;;;14.30;77.00;;;;;;5008386;28;20057;-82
2021/05/26 20:53:03;;;;;;;0.43;0.40;;;14.40;76.90;;;;;;4994415;28;20109;-83
2021/05/26 20:55:29;;;;;;;0.50;0.40;;;14.30;77.00;;;;;;5009300;28;20030;-83
2021/05/26 20:57:55;;;;;;;0.30;0.30;;;14.30;77.10;;;;;;5012924;28;20052;-83
2021/05/26 21:00:25;;;;;;;0.40;0.30;;;14.30;77.50;;;;;;5012476;28;20503;-84
2021/05/26 21:02:54;;;;;;;0.47;0.30;;;14.20;78.40;;;;;;4996567;28;20028;-81
2021/05/26 21:05:20;;;;;;;0.57;0.40;;;14.00;79.20;;;;;;5007842;28;20496;-82
2021/05/26 21:07:46;;;;;;;0.50;0.40;;;13.80;80.10;;;;;;5014088;28;20416;-82
2021/05/26 21:10:13;;;;;;;0.40;0.35;;;13.90;79.20;;;;;;5013462;28;20085;-82
2021/05/26 21:12:40;;;;;;;0.63;0.45;;;14.00;78.80;;;;;;5003889;28;20042;-82
2021/05/26 21:15:06;;;;;;;0.30;0.30;;;14.10;78.20;;;;;;5014546;28;20588;-82
2021/05/26 21:17:32;;;;;;;0.40;0.40;;;14.10;77.70;;;;;;5014904;28;20026;-82
2021/05/26 21:19:58;;;;;;;1.05;0.60;;;14.20;77.60;;;;;;5014341;28;20122;-82
2021/05/26 21:22:24;;;;;;;1.02;0.50;;;14.10;77.70;;;;;;5015198;28;20026;-82
2021/05/26 21:24:49;;;;;;;0.80;0.50;;;13.90;79.50;;;;;;5015264;28;20022;-82